Time;durP1;ratioP1;P1;durP2;ratioP2;P2;SDS_P1;SDS_P2;PMS_P1;PMS_P2;Temp;Humidity;BMP_temperature;BMP_pressure;BME280_temperature;BME280_humidity;BME280_pressure;Samples;Min_cycle;Max_cycle;Signal;HPM_P1;HPM_P2
2023/02/28 07:44:28;;;;;;;10.00;6.40;;;-4.00;99.90;;;;;;5133490;27;20277;-79
2023/02/28 09:23:44;;;;;;;14.17;9.23;;;-3.00;99.90;;;;;;5147592;27;20805;-79
2023/02/28 09:27:53;;;;;;;15.80;9.20;;;-2.80;99.90;;;;;;5148994;27;20342;-80
2023/02/28 09:31:54;;;;;;;12.77;8.60;;;;;;;;;;5143881;27;20622;-81
2023/02/28 09:36:00;;;;;;;13.83;7.83;;;-2.70;99.90;;;;;;5141481;27;20278;-81
2023/02/28 09:39:59;;;;;;;13.83;8.60;;;-2.60;99.90;;;;;;5141933;27;20275;-80
2023/02/28 09:44:03;;;;;;;14.07;8.20;;;-2.40;99.90;;;;;;5141937;27;20729;-81
2023/02/28 09:48:06;;;;;;;18.67;10.37;;;-2.30;99.90;;;;;;5142829;27;20291;-82
2023/02/28 09:52:09;;;;;;;15.10;9.40;;;-2.10;99.90;;;;;;5142893;27;20279;-81
2023/02/28 09:56:25;;;;;;;13.67;9.50;;;-2.30;99.90;;;;;;5142070;27;20282;-81
2023/02/28 10:00:19;;;;;;;13.73;9.77;;;-2.30;99.90;;;;;;5143093;27;20277;-81
2023/02/28 10:02:53;;;;;;;12.60;8.47;;;-2.40;99.90;;;;;;5142508;28;20430;-81
2023/02/28 10:05:31;;;;;;;13.37;10.37;;;-2.30;99.90;;;;;;5123995;28;20182;-81
2023/02/28 10:08:08;;;;;;;13.07;9.43;;;-2.30;99.90;;;;;;5137384;28;20195;-82
2023/02/28 10:10:42;;;;;;;14.43;9.43;;;-2.20;99.90;;;;;;5142922;27;20242;-82
2023/02/28 10:13:37;;;;;;;16.90;8.77;;;-2.30;99.90;;;;;;5140689;28;20200;-83
2023/02/28 10:16:17;;;;;;;12.03;9.07;;;-2.30;99.90;;;;;;5133189;28;20562;-80
2023/02/28 10:18:48;;;;;;;13.97;8.83;;;-2.20;99.90;;;;;;5142091;27;20227;-80
2023/02/28 10:21:39;;;;;;;11.57;8.57;;;-2.30;99.90;;;;;;5141472;28;20193;-81
2023/02/28 10:24:14;;;;;;;11.77;8.80;;;-2.20;99.90;;;;;;5131756;27;20209;-81
2023/02/28 10:26:43;;;;;;;11.87;8.47;;;-2.20;99.90;;;;;;5148940;28;20940;-80
2023/02/28 10:29:10;;;;;;;12.57;8.10;;;-2.10;99.90;;;;;;5135973;27;20229;-81
2023/02/28 10:31:36;;;;;;;14.67;9.47;;;-2.00;99.90;;;;;;5131191;28;20639;-80
2023/02/28 10:34:03;;;;;;;13.40;9.50;;;-2.10;99.90;;;;;;5135879;27;20640;-81
2023/02/28 10:36:29;;;;;;;12.87;9.47;;;-2.00;99.90;;;;;;5137040;28;20195;-82
2023/02/28 10:38:55;;;;;;;13.00;9.13;;;-1.90;99.90;;;;;;5137350;28;20453;-83
2023/02/28 10:41:30;;;;;;;14.33;9.20;;;-2.00;99.90;;;;;;5138526;28;20186;-82
2023/02/28 10:44:14;;;;;;;13.17;9.10;;;-2.20;99.90;;;;;;5139299;27;20757;-81
2023/02/28 10:46:41;;;;;;;16.97;10.13;;;-2.20;99.90;;;;;;5139720;27;20278;-80
2023/02/28 10:49:19;;;;;;;15.57;10.27;;;-2.10;99.90;;;;;;5137448;28;20213;-81
2023/02/28 10:51:48;;;;;;;14.60;10.77;;;-2.10;99.90;;;;;;5138166;28;20250;-81
2023/02/28 10:54:37;;;;;;;14.60;9.33;;;-2.10;99.90;;;;;;5148678;28;20447;-80
2023/02/28 10:57:28;;;;;;;14.70;10.37;;;-2.00;99.90;;;;;;5142608;27;20286;-81
2023/02/28 11:00:17;;;;;;;11.87;8.67;;;-1.90;99.90;;;;;;5140297;27;20286;-80
2023/02/28 11:02:44;;;;;;;15.23;9.83;;;-1.90;99.90;;;;;;5136415;28;20240;-81
2023/02/28 11:05:33;;;;;;;16.27;9.63;;;-1.90;99.90;;;;;;5138873;28;20168;-80
2023/02/28 11:08:11;;;;;;;12.63;9.60;;;-2.00;99.90;;;;;;5142397;28;20282;-80
2023/02/28 11:10:37;;;;;;;14.03;9.53;;;-2.10;99.90;;;;;;5129473;28;20156;-81
2023/02/28 11:13:03;;;;;;;16.57;10.10;;;-1.90;99.90;;;;;;5123140;28;20440;-80
2023/02/28 11:15:32;;;;;;;14.60;9.27;;;-1.80;99.90;;;;;;5124326;28;20172;-80
2023/02/28 11:18:19;;;;;;;11.47;8.90;;;-1.70;99.90;;;;;;5122997;28;20207;-80
2023/02/28 11:20:53;;;;;;;14.37;9.73;;;-1.80;99.90;;;;;;5122286;28;20402;-83
2023/02/28 11:23:20;;;;;;;14.60;9.93;;;-1.80;99.90;;;;;;5123750;28;20747;-81
2023/02/28 11:25:53;;;;;;;13.40;10.10;;;-1.70;99.90;;;;;;5123443;28;20413;-79
2023/02/28 11:28:34;;;;;;;19.20;10.83;;;-1.80;99.90;;;;;;5123556;28;20482;-79
2023/02/28 11:31:06;;;;;;;15.33;10.27;;;-1.90;99.90;;;;;;5121578;28;20421;-80
2023/02/28 11:33:52;;;;;;;17.37;9.13;;;-1.70;99.90;;;;;;5120335;28;20489;-80
2023/02/28 11:36:20;;;;;;;12.47;9.90;;;-1.60;99.90;;;;;;5122882;28;20433;-80
2023/02/28 11:38:46;;;;;;;13.60;9.90;;;-1.50;99.90;;;;;;5121541;28;20207;-80
2023/02/28 11:41:30;;;;;;;14.17;9.63;;;-1.50;99.90;;;;;;5121629;28;20266;-80
2023/02/28 11:44:06;;;;;;;14.97;9.97;;;-1.40;99.90;;;;;;5120298;28;20247;-80
2023/02/28 11:46:49;;;;;;;16.33;10.40;;;-1.60;99.90;;;;;;5120695;28;20282;-81
2023/02/28 11:49:26;;;;;;;13.77;10.23;;;-1.70;99.90;;;;;;5122362;28;20405;-80
2023/02/28 11:51:58;;;;;;;14.07;9.73;;;-1.50;99.90;;;;;;5121490;28;20439;-80
2023/02/28 11:54:40;;;;;;;14.47;10.13;;;-1.40;99.90;;;;;;5123525;28;20436;-82
2023/02/28 11:57:32;;;;;;;15.13;10.67;;;-1.40;99.90;;;;;;5122839;28;20203;-81
2023/02/28 12:00:12;;;;;;;13.17;9.97;;;-1.40;99.90;;;;;;5122634;28;20481;-81
2023/02/28 12:03:29;;;;;;;15.53;11.30;;;-1.40;99.90;;;;;;5124141;28;20160;-81
2023/02/28 12:06:21;;;;;;;12.20;9.57;;;-1.20;99.90;;;;;;5077855;28;20725;-82
2023/02/28 12:09:02;;;;;;;13.43;10.13;;;-1.40;99.90;;;;;;5116254;28;20190;-80
2023/02/28 12:12:15;;;;;;;12.43;9.67;;;-1.40;99.90;;;;;;5125375;28;20167;-80
2023/02/28 12:15:02;;;;;;;13.47;9.47;;;-1.60;99.90;;;;;;5117126;28;20183;-80
2023/02/28 12:17:43;;;;;;;13.33;9.83;;;-1.50;99.90;;;;;;5122105;28;20248;-80
2023/02/28 12:20:17;;;;;;;13.53;11.03;;;-1.40;99.90;;;;;;5123301;28;20386;-82
2023/02/28 12:23:17;;;;;;;17.30;10.23;;;-1.30;99.90;;;;;;5121325;28;20170;-81
2023/02/28 12:26:00;;;;;;;15.90;11.50;;;-1.30;99.90;;;;;;5124160;28;20429;-80
2023/02/28 12:28:37;;;;;;;13.17;10.13;;;-1.20;99.90;;;;;;5121674;28;20833;-80
2023/02/28 12:31:09;;;;;;;13.40;9.97;;;-1.10;99.90;;;;;;5122003;28;20179;-81
2023/02/28 12:33:40;;;;;;;12.43;9.30;;;-1.20;99.90;;;;;;5122726;28;20498;-80
2023/02/28 12:36:12;;;;;;;15.00;10.40;;;-1.20;99.90;;;;;;5121252;28;20704;-81
2023/02/28 12:38:48;;;;;;;15.07;10.77;;;-1.20;99.90;;;;;;5120942;28;20442;-81
2023/02/28 12:41:37;;;;;;;13.47;10.33;;;-1.10;99.90;;;;;;5121480;28;20167;-81
2023/02/28 12:44:13;;;;;;;14.83;10.87;;;-1.10;99.90;;;;;;5119769;28;20422;-80
2023/02/28 12:46:45;;;;;;;17.63;10.63;;;-1.20;99.90;;;;;;5118985;28;20216;-82
2023/02/28 12:49:31;;;;;;;17.47;11.87;;;-1.20;99.90;;;;;;5119836;28;20148;-82
2023/02/28 12:51:59;;;;;;;14.73;10.30;;;-1.00;99.90;;;;;;5117600;28;20168;-81
2023/02/28 12:54:32;;;;;;;13.67;10.77;;;-1.00;99.90;;;;;;5118369;28;20266;-81
2023/02/28 12:57:18;;;;;;;13.50;10.50;;;-1.00;99.90;;;;;;5117467;28;20191;-80
2023/02/28 12:59:55;;;;;;;13.80;10.40;;;-1.00;99.90;;;;;;5118068;28;20559;-80
2023/02/28 13:02:42;;;;;;;13.73;9.43;;;-1.00;99.90;;;;;;5115986;28;20170;-81
2023/02/28 13:05:20;;;;;;;12.70;10.33;;;-1.10;99.90;;;;;;5114002;28;20264;-80
2023/02/28 13:08:04;;;;;;;13.93;10.33;;;-1.10;99.90;;;;;;5114600;28;20184;-83
2023/02/28 13:10:44;;;;;;;14.43;10.37;;;-1.00;99.90;;;;;;5120063;28;20172;-81
2023/02/28 13:13:22;;;;;;;15.27;11.43;;;-1.00;99.90;;;;;;5121420;28;20209;-82
2023/02/28 13:16:07;;;;;;;14.57;10.87;;;-1.00;99.90;;;;;;5124046;28;20189;-80
2023/02/28 13:18:37;;;;;;;15.77;11.43;;;-0.90;99.90;;;;;;5121604;28;20187;-80
2023/02/28 13:21:05;;;;;;;20.60;15.77;;;-0.80;99.90;;;;;;5121452;28;20181;-80
2023/02/28 13:23:56;;;;;;;26.10;16.23;;;-0.90;99.90;;;;;;5123388;28;20196;-80
2023/02/28 13:26:49;;;;;;;66.47;32.70;;;-1.20;99.90;;;;;;5122267;28;20219;-79
2023/02/28 13:29:15;;;;;;;16.57;12.27;;;-1.20;99.90;;;;;;5084977;28;20213;-81
2023/02/28 13:32:06;;;;;;;14.13;11.20;;;-1.20;99.90;;;;;;5122830;28;20164;-80
2023/02/28 13:34:55;;;;;;;24.33;18.67;;;-1.30;99.90;;;;;;5131726;27;20202;-80
2023/02/28 13:37:29;;;;;;;21.10;14.03;;;-1.20;99.90;;;;;;5130139;27;20465;-79
2023/02/28 13:40:23;;;;;;;15.57;12.27;;;-1.10;99.90;;;;;;5141792;27;20200;-79
2023/02/28 13:42:50;;;;;;;14.43;11.10;;;-1.10;99.90;;;;;;5123015;27;20177;-80
2023/02/28 13:45:27;;;;;;;20.73;15.27;;;-1.10;99.90;;;;;;5122455;28;20165;-80
2023/02/28 13:48:02;;;;;;;14.17;10.87;;;-1.00;99.90;;;;;;5120739;28;20339;-80
2023/02/28 13:50:37;;;;;;;14.77;11.20;;;-1.10;99.90;;;;;;5102128;28;20171;-80
2023/02/28 13:53:03;;;;;;;17.97;13.37;;;-1.00;99.90;;;;;;5119289;27;20176;-80
2023/02/28 13:55:43;;;;;;;23.53;13.90;;;-0.80;99.90;;;;;;5142791;27;20190;-80
2023/02/28 13:58:24;;;;;;;17.77;11.77;;;-0.80;99.90;;;;;;5141164;28;20238;-79
2023/02/28 14:01:06;;;;;;;15.13;11.70;;;-0.70;99.90;;;;;;5142128;28;20175;-80
2023/02/28 14:04:03;;;;;;;16.63;13.73;;;-0.70;99.90;;;;;;5128513;28;20241;-79
2023/02/28 14:06:33;;;;;;;13.93;10.67;;;-0.70;99.90;;;;;;5110275;28;20278;-79
2023/02/28 14:09:07;;;;;;;13.83;10.37;;;-0.60;99.90;;;;;;5143299;28;20163;-80
2023/02/28 14:11:36;;;;;;;26.07;15.43;;;-0.60;99.90;;;;;;5130636;28;20199;-80
2023/02/28 14:14:04;;;;;;;39.03;21.27;;;-0.60;99.90;;;;;;5138399;28;20175;-81
2023/02/28 14:16:43;;;;;;;31.77;18.63;;;-0.60;99.90;;;;;;5121735;28;20195;-81
2023/02/28 14:19:24;;;;;;;27.10;16.20;;;-0.60;99.90;;;;;;5122825;28;20192;-82
2023/02/28 14:22:19;;;;;;;23.80;15.83;;;-0.70;99.90;;;;;;5138233;28;20190;-79
2023/02/28 14:25:06;;;;;;;23.40;13.53;;;-0.70;99.90;;;;;;5105358;28;20183;-79
2023/02/28 14:28:10;;;;;;;19.97;10.77;;;-0.60;99.90;;;;;;5104678;28;20188;-82
2023/02/28 14:31:15;;;;;;;17.80;12.13;;;-0.20;99.90;;;;;;5044566;28;20199;-80
2023/02/28 14:33:59;;;;;;;19.23;11.50;;;0.20;99.90;;;;;;5097296;28;20649;-80
2023/02/28 14:36:34;;;;;;;14.37;11.00;;;0.30;99.90;;;;;;5097905;28;20197;-80
2023/02/28 14:39:25;;;;;;;14.60;11.10;;;0.40;99.90;;;;;;5097330;28;20292;-80
2023/02/28 14:41:51;;;;;;;14.20;11.20;;;0.50;99.90;;;;;;5095838;28;20618;-80
2023/02/28 14:44:17;;;;;;;14.37;10.80;;;0.50;99.90;;;;;;5096907;28;20168;-81
2023/02/28 14:46:44;;;;;;;18.00;12.50;;;0.40;99.90;;;;;;5100962;28;20203;-80
2023/02/28 14:49:20;;;;;;;21.37;12.97;;;0.40;99.90;;;;;;5101668;28;20176;-80
2023/02/28 14:51:50;;;;;;;20.40;11.70;;;0.40;99.90;;;;;;5100613;28;20167;-80
2023/02/28 14:54:23;;;;;;;22.27;13.80;;;0.30;99.90;;;;;;5102001;28;20410;-80
2023/02/28 14:56:49;;;;;;;18.77;13.07;;;0.30;99.90;;;;;;5100919;28;20438;-80
2023/02/28 14:59:27;;;;;;;19.73;12.27;;;0.30;99.90;;;;;;5100099;28;20493;-81
2023/02/28 15:02:16;;;;;;;21.00;12.23;;;0.30;99.90;;;;;;5100600;28;20409;-81
2023/02/28 15:04:42;;;;;;;14.90;11.20;;;0.30;99.90;;;;;;5100047;28;20501;-81
2023/02/28 15:07:14;;;;;;;16.83;11.20;;;0.20;99.90;;;;;;5101230;28;20448;-80
2023/02/28 15:09:40;;;;;;;12.30;9.70;;;0.20;99.90;;;;;;5100620;28;20405;-82
2023/02/28 15:12:07;;;;;;;16.13;11.97;;;0.30;99.90;;;;;;5099649;28;20903;-81
2023/02/28 15:14:38;;;;;;;15.67;11.67;;;0.30;99.90;;;;;;5101104;28;20402;-81
2023/02/28 15:17:12;;;;;;;14.13;11.77;;;0.50;99.90;;;;;;5099839;28;20569;-80
2023/02/28 15:19:44;;;;;;;14.43;11.57;;;0.60;99.90;;;;;;5101156;28;20537;-80
2023/02/28 15:22:19;;;;;;;19.00;11.73;;;0.60;99.90;;;;;;5099681;28;20448;-79
2023/02/28 15:24:49;;;;;;;17.90;11.87;;;0.50;99.90;;;;;;5100236;28;20386;-80
2023/02/28 15:27:29;;;;;;;15.30;10.63;;;0.60;99.90;;;;;;5098578;28;20531;-80
2023/02/28 15:29:58;;;;;;;17.53;11.80;;;0.40;99.90;;;;;;5097895;28;20421;-80
2023/02/28 15:32:32;;;;;;;15.03;12.33;;;0.40;99.90;;;;;;5097885;28;20425;-82
2023/02/28 15:35:16;;;;;;;17.80;12.53;;;0.30;99.90;;;;;;5097264;28;20910;-81
2023/02/28 15:37:53;;;;;;;17.83;13.10;;;0.30;99.90;;;;;;5098326;28;20426;-80
2023/02/28 15:40:36;;;;;;;17.73;13.07;;;0.20;99.90;;;;;;5095669;28;20809;-82
2023/02/28 15:43:07;;;;;;;16.43;13.20;;;0.20;99.90;;;;;;5096190;28;20395;-81
2023/02/28 15:45:49;;;;;;;23.67;16.23;;;0.10;99.90;;;;;;5095615;28;20414;-81
2023/02/28 15:48:29;;;;;;;13.77;11.50;;;0.30;99.90;;;;;;5099733;28;20430;-80
2023/02/28 15:51:00;;;;;;;15.83;13.63;;;0.30;99.90;;;;;;5099315;28;20931;-80
2023/02/28 15:53:32;;;;;;;17.10;12.80;;;0.10;99.90;;;;;;5099107;28;20414;-81
2023/02/28 15:56:02;;;;;;;16.93;13.77;;;0.10;99.90;;;;;;5100914;28;20851;-80
2023/02/28 15:58:28;;;;;;;14.43;11.87;;;-0.20;99.90;;;;;;5100821;28;20461;-80
2023/02/28 16:01:17;;;;;;;15.50;12.03;;;-0.10;99.90;;;;;;5099403;28;20410;-80
2023/02/28 16:03:48;;;;;;;18.13;11.63;;;-0.10;99.90;;;;;;5101390;28;20422;-80
2023/02/28 16:06:44;;;;;;;15.40;10.53;;;-0.10;99.90;;;;;;5099267;28;20416;-81
2023/02/28 16:09:15;;;;;;;15.10;12.27;;;-0.30;99.90;;;;;;5098930;28;20418;-80
2023/02/28 16:11:47;;;;;;;15.77;11.80;;;-0.20;99.90;;;;;;5100564;28;20397;-80
2023/02/28 16:14:20;;;;;;;19.03;13.50;;;-0.20;99.90;;;;;;5098761;28;20453;-81
2023/02/28 16:16:51;;;;;;;21.53;14.33;;;-0.20;99.90;;;;;;5101690;28;20481;-81
2023/02/28 16:19:18;;;;;;;19.87;13.10;;;-0.30;99.90;;;;;;5098498;28;20544;-81
2023/02/28 16:21:44;;;;;;;25.80;18.03;;;-0.40;99.90;;;;;;5099886;28;20443;-80
2023/02/28 16:24:10;;;;;;;17.03;13.27;;;;;;;;;;5099784;28;20422;-81
